Time;durP1;ratioP1;P1;durP2;ratioP2;P2;SDS_P1;SDS_P2;PMS_P1;PMS_P2;Temp;Humidity;BMP_temperature;BMP_pressure;BME280_temperature;BME280_humidity;BME280_pressure;Samples;Min_cycle;Max_cycle;Signal;HPM_P1;HPM_P2
2022/06/04 00:00:32;;;;;;;16.88;8.25;;;11.70;99.90;;;;;;5054388;28;20551;-64
2022/06/04 00:02:58;;;;;;;15.35;8.02;;;11.70;99.90;;;;;;5053845;28;20049;-64
2022/06/04 00:05:30;;;;;;;16.77;8.45;;;11.70;99.90;;;;;;5052269;28;20048;-64
2022/06/04 00:07:58;;;;;;;14.73;8.35;;;11.70;99.90;;;;;;5053809;28;20033;-64
2022/06/04 00:16:00;;;;;;;15.15;6.63;;;;;;;;;;5052662;28;20402;-64
2022/06/04 00:18:27;;;;;;;13.10;6.28;;;11.80;99.90;;;;;;5052690;28;20080;-65
2022/06/04 00:20:54;;;;;;;11.88;7.63;;;11.80;99.90;;;;;;5052901;28;20049;-64
2022/06/04 00:23:21;;;;;;;16.42;7.95;;;12.00;99.90;;;;;;5053944;28;20116;-64
2022/06/04 00:25:50;;;;;;;16.95;8.63;;;11.70;99.90;;;;;;5052327;28;20482;-64
2022/06/04 00:28:18;;;;;;;13.35;8.75;;;11.70;99.90;;;;;;5051782;28;20075;-65
2022/06/04 00:30:44;;;;;;;12.02;7.20;;;11.70;99.90;;;;;;5052294;28;20044;-64
2022/06/04 00:33:10;;;;;;;12.52;7.60;;;11.70;99.90;;;;;;5053626;28;20120;-64
2022/06/04 00:35:37;;;;;;;11.05;7.22;;;11.60;99.90;;;;;;5035190;28;20051;-64
2022/06/04 00:38:05;;;;;;;12.63;6.88;;;11.70;99.90;;;;;;5051792;28;20045;-64
2022/06/04 00:40:44;;;;;;;13.20;7.07;;;11.70;99.90;;;;;;5051744;28;20083;-64
2022/06/04 00:43:10;;;;;;;11.65;7.13;;;11.70;99.90;;;;;;5053626;28;20049;-65
2022/06/04 00:45:35;;;;;;;12.63;7.32;;;11.70;99.90;;;;;;5052178;28;20044;-64
2022/06/04 00:48:04;;;;;;;13.65;7.90;;;11.60;99.90;;;;;;5052336;28;20143;-64
2022/06/04 00:50:32;;;;;;;16.77;7.72;;;11.70;99.90;;;;;;5052297;28;20044;-64
2022/06/04 00:53:02;;;;;;;14.48;7.18;;;11.60;99.90;;;;;;5052762;28;20072;-64
2022/06/04 00:55:52;;;;;;;16.88;7.45;;;11.60;99.90;;;;;;5051583;28;20483;-64
2022/06/04 00:58:21;;;;;;;15.43;7.43;;;11.80;99.90;;;;;;5030990;28;20517;-64
2022/06/04 01:01:17;;;;;;;14.32;7.25;;;11.70;99.90;;;;;;5051963;28;20033;-64
2022/06/04 01:03:58;;;;;;;12.82;7.05;;;11.70;99.90;;;;;;5050940;28;20478;-64
2022/06/04 01:06:40;;;;;;;13.93;7.22;;;11.50;99.90;;;;;;5051843;28;20041;-64
2022/06/04 01:09:34;;;;;;;11.65;7.65;;;11.50;99.90;;;;;;5050612;28;20582;-64
2022/06/04 01:12:11;;;;;;;14.38;7.10;;;11.50;99.90;;;;;;5051401;28;20092;-64
2022/06/04 01:14:56;;;;;;;9.93;6.65;;;11.50;99.90;;;;;;5053041;28;20045;-64
2022/06/04 01:17:45;;;;;;;19.80;7.95;;;11.50;99.90;;;;;;5051251;28;20086;-64
2022/06/04 01:20:49;;;;;;;19.90;7.35;;;11.40;99.90;;;;;;5050782;28;20057;-64
2022/06/04 01:23:43;;;;;;;12.30;7.55;;;11.40;99.90;;;;;;5043673;28;20048;-64
2022/06/04 01:26:21;;;;;;;15.05;6.80;;;11.40;99.90;;;;;;5051291;28;20040;-64
2022/06/04 01:28:56;;;;;;;10.98;6.15;;;11.30;99.90;;;;;;5052295;28;20087;-64
2022/06/04 01:31:31;;;;;;;10.68;6.57;;;11.30;99.90;;;;;;5050989;28;20082;-64
2022/06/04 01:34:00;;;;;;;10.85;6.57;;;11.30;99.90;;;;;;5051081;28;20037;-64
2022/06/04 01:36:55;;;;;;;12.95;6.20;;;11.30;99.90;;;;;;5052675;28;20032;-64
2022/06/04 01:39:25;;;;;;;15.38;6.60;;;11.30;99.90;;;;;;5051360;28;20101;-64
2022/06/04 01:41:57;;;;;;;12.45;6.38;;;11.30;99.90;;;;;;5050796;28;20051;-64
2022/06/04 01:44:26;;;;;;;11.43;6.00;;;11.30;99.90;;;;;;5051852;28;20049;-64
2022/06/04 01:46:57;;;;;;;16.92;7.45;;;11.30;99.90;;;;;;5052035;28;20040;-64
2022/06/04 01:49:42;;;;;;;11.40;6.57;;;11.30;99.90;;;;;;5052228;28;20036;-64
2022/06/04 01:52:22;;;;;;;18.67;7.07;;;11.30;99.90;;;;;;5051568;28;20036;-64
2022/06/04 01:55:01;;;;;;;10.88;6.15;;;11.20;99.90;;;;;;5052259;28;20051;-64
2022/06/04 01:57:34;;;;;;;11.55;6.28;;;11.30;99.90;;;;;;5051094;28;20502;-64
2022/06/04 02:00:13;;;;;;;11.07;6.07;;;11.20;99.90;;;;;;5051022;28;20045;-64
2022/06/04 02:02:55;;;;;;;10.65;6.63;;;;;;;;;;5050942;28;20044;-64
2022/06/04 02:05:29;;;;;;;12.95;6.95;;;11.20;99.90;;;;;;5050087;28;20053;-64
2022/06/04 02:08:01;;;;;;;14.77;7.55;;;11.10;99.90;;;;;;5050492;28;20486;-64
2022/06/04 02:10:38;;;;;;;12.55;6.60;;;11.20;99.90;;;;;;5052187;28;20079;-64
2022/06/04 02:13:08;;;;;;;11.07;6.50;;;11.10;99.90;;;;;;5049771;28;20041;-64
2022/06/04 02:15:57;;;;;;;12.15;6.70;;;11.10;99.90;;;;;;5051142;28;20116;-64
2022/06/04 02:18:24;;;;;;;13.82;7.07;;;11.10;99.90;;;;;;5050887;28;20041;-64
2022/06/04 02:20:50;;;;;;;11.70;5.43;;;;;;;;;;5049318;28;20421;-64
2022/06/04 02:23:16;;;;;;;10.13;5.40;;;;;;;;;;5050827;28;20044;-64
2022/06/04 02:25:42;;;;;;;14.18;6.20;;;;;;;;;;5050792;28;20048;-64
2022/06/04 02:28:09;;;;;;;11.25;6.13;;;;;;;;;;5051348;28;20037;-64
2022/06/04 02:30:50;;;;;;;9.73;6.72;;;11.00;99.90;;;;;;5052012;28;20049;-64
2022/06/04 02:33:34;;;;;;;14.07;6.95;;;11.00;99.90;;;;;;5049828;28;20072;-64
2022/06/04 02:36:24;;;;;;;9.85;6.10;;;10.90;99.90;;;;;;5051308;28;20041;-64
2022/06/04 02:39:02;;;;;;;16.00;6.45;;;11.00;99.90;;;;;;5050196;28;20053;-64
2022/06/04 02:41:32;;;;;;;10.43;5.78;;;10.90;99.90;;;;;;5051097;28;20367;-64
2022/06/04 02:43:58;;;;;;;17.33;6.30;;;;;;;;;;5050063;28;20063;-64
2022/06/04 02:46:32;;;;;;;11.85;5.50;;;;;;;;;;5052019;28;20048;-64
2022/06/04 02:49:09;;;;;;;10.53;4.80;;;;;;;;;;5050536;28;20051;-64
2022/06/04 02:51:42;;;;;;;9.80;5.70;;;;;;;;;;5051843;28;20264;-64
2022/06/04 02:54:15;;;;;;;14.23;6.20;;;10.80;99.90;;;;;;5050663;28;20080;-64
2022/06/04 02:56:43;;;;;;;12.35;5.53;;;10.80;99.90;;;;;;5050716;28;20406;-64
2022/06/04 02:59:12;;;;;;;14.80;5.65;;;10.80;99.90;;;;;;5050290;28;20056;-64
2022/06/04 03:01:45;;;;;;;8.65;5.55;;;10.80;99.90;;;;;;5049743;28;20037;-64
2022/06/04 03:04:11;;;;;;;10.82;4.90;;;;;;;;;;5051386;28;20091;-64
2022/06/04 03:06:38;;;;;;;14.50;5.93;;;;;;;;;;5051709;28;20041;-64
2022/06/04 03:09:12;;;;;;;11.98;5.60;;;;;;;;;;5050447;28;20104;-64
2022/06/04 03:11:46;;;;;;;12.85;6.53;;;10.70;99.90;;;;;;5050526;28;20044;-64
2022/06/04 03:14:14;;;;;;;9.32;5.07;;;10.70;99.90;;;;;;5050294;28;20053;-64
2022/06/04 03:16:42;;;;;;;11.10;6.47;;;10.70;99.90;;;;;;5049533;28;20072;-64
2022/06/04 03:19:09;;;;;;;9.40;5.55;;;10.70;99.90;;;;;;5050070;28;20053;-64
2022/06/04 03:21:36;;;;;;;12.60;4.75;;;10.70;99.90;;;;;;5052703;28;20053;-64
2022/06/04 03:24:06;;;;;;;9.48;5.20;;;10.70;99.90;;;;;;5052516;28;20053;-64
2022/06/04 03:26:32;;;;;;;10.10;4.93;;;;;;;;;;5037382;28;20066;-64
2022/06/04 03:28:59;;;;;;;8.57;4.85;;;;;;;;;;5054584;28;20482;-64
2022/06/04 03:31:28;;;;;;;10.80;5.95;;;10.70;99.90;;;;;;5036243;28;20048;-64
2022/06/04 03:33:55;;;;;;;10.73;5.68;;;10.60;99.90;;;;;;5053161;28;20045;-64
2022/06/04 03:36:21;;;;;;;8.82;5.22;;;10.60;99.90;;;;;;5053096;28;20514;-64
2022/06/04 03:38:48;;;;;;;10.18;5.05;;;10.60;99.90;;;;;;5054713;28;20076;-64
2022/06/04 03:41:14;;;;;;;10.85;4.72;;;10.60;99.90;;;;;;5053755;28;20112;-64
2022/06/04 03:43:41;;;;;;;19.55;5.65;;;10.60;99.90;;;;;;5052660;28;20609;-64
2022/06/04 03:46:07;;;;;;;8.98;4.35;;;10.50;99.90;;;;;;5052774;28;20123;-64
2022/06/04 03:48:34;;;;;;;7.50;5.22;;;10.70;99.90;;;;;;5053769;28;20112;-64
2022/06/04 03:51:01;;;;;;;8.85;4.90;;;10.60;99.90;;;;;;5052117;28;20044;-64
2022/06/04 03:53:26;;;;;;;8.50;4.82;;;10.60;99.90;;;;;;5053505;28;20045;-64
2022/06/04 03:55:52;;;;;;;7.10;4.25;;;;;;;;;;5052882;28;20102;-64
2022/06/04 03:58:18;;;;;;;7.93;4.75;;;10.70;99.90;;;;;;5036123;28;20044;-64
2022/06/04 04:00:45;;;;;;;9.80;3.97;;;;;;;;;;5052735;28;20482;-64
2022/06/04 04:03:11;;;;;;;9.00;5.25;;;;;;;;;;5052797;28;20048;-64
2022/06/04 04:05:39;;;;;;;8.02;4.40;;;10.90;99.90;;;;;;5052441;28;20048;-64
2022/06/04 04:08:08;;;;;;;9.35;4.43;;;10.90;99.90;;;;;;5053977;28;20029;-64
2022/06/04 04:10:34;;;;;;;8.70;4.22;;;;;;;;;;5053331;28;20478;-64
2022/06/04 04:13:00;;;;;;;8.70;4.55;;;10.90;99.90;;;;;;5052768;28;20551;-64
2022/06/04 04:15:26;;;;;;;8.90;5.15;;;;;;;;;;5036279;28;20045;-64
2022/06/04 04:17:53;;;;;;;7.10;3.97;;;;;;;;;;5053830;28;20123;-64
2022/06/04 04:20:22;;;;;;;8.02;4.30;;;11.00;99.90;;;;;;5053204;28;20136;-64
2022/06/04 04:22:48;;;;;;;10.68;4.47;;;11.00;99.90;;;;;;5053876;28;20041;-64
2022/06/04 04:25:16;;;;;;;9.23;4.35;;;11.00;99.90;;;;;;5052673;28;20041;-64
2022/06/04 04:27:42;;;;;;;6.20;4.00;;;11.10;99.90;;;;;;5052041;28;20040;-64
2022/06/04 04:30:11;;;;;;;8.70;4.13;;;11.10;99.90;;;;;;5053385;28;20845;-64
2022/06/04 04:32:37;;;;;;;7.85;4.10;;;11.10;99.90;;;;;;5050939;28;20425;-64
2022/06/04 04:35:05;;;;;;;8.05;4.68;;;11.20;99.90;;;;;;5052349;28;20070;-64
2022/06/04 04:37:31;;;;;;;10.63;4.00;;;11.20;99.90;;;;;;5052510;28;20048;-64
2022/06/04 04:39:57;;;;;;;7.72;4.15;;;11.40;99.90;;;;;;5051245;28;20040;-64
2022/06/04 04:42:24;;;;;;;10.48;3.80;;;11.30;99.90;;;;;;5052341;28;20171;-64
2022/06/04 04:44:49;;;;;;;8.90;4.05;;;11.60;99.90;;;;;;5051625;28;20044;-64
2022/06/04 04:47:16;;;;;;;10.52;4.43;;;11.60;99.90;;;;;;5051706;28;20033;-64
2022/06/04 04:49:42;;;;;;;9.80;4.00;;;11.40;99.90;;;;;;5052347;28;20033;-64
2022/06/04 04:52:08;;;;;;;6.18;4.00;;;11.40;99.90;;;;;;5051928;28;20076;-64
2022/06/04 04:54:34;;;;;;;6.43;4.30;;;11.50;99.90;;;;;;5034838;28;20041;-64
2022/06/04 04:57:00;;;;;;;7.78;3.80;;;11.50;99.90;;;;;;5051532;28;20044;-64
2022/06/04 04:59:26;;;;;;;6.50;3.85;;;11.60;99.90;;;;;;5052356;28;20086;-64
2022/06/04 05:01:52;;;;;;;7.30;4.55;;;11.80;99.90;;;;;;5034227;28;20102;-64
2022/06/04 05:04:17;;;;;;;7.05;3.80;;;11.90;99.90;;;;;;5052070;28;20071;-63
2022/06/04 05:06:43;;;;;;;8.73;3.80;;;12.00;99.90;;;;;;5051800;28;20047;-64
2022/06/04 05:09:10;;;;;;;6.93;3.45;;;12.10;99.90;;;;;;5052074;28;20047;-64
2022/06/04 05:11:36;;;;;;;7.53;3.58;;;12.30;99.90;;;;;;5051875;28;20124;-64
2022/06/04 05:14:03;;;;;;;7.07;3.72;;;12.40;99.90;;;;;;5052429;28;20497;-64
2022/06/04 05:16:32;;;;;;;6.57;3.28;;;12.50;99.90;;;;;;5052335;28;20056;-64
2022/06/04 05:18:58;;;;;;;7.20;3.65;;;12.60;99.90;;;;;;5051334;28;20045;-64
2022/06/04 05:21:34;;;;;;;7.30;3.70;;;12.60;99.90;;;;;;5052427;28;20045;-65
2022/06/04 05:24:00;;;;;;;6.95;3.28;;;12.70;99.90;;;;;;5051124;28;20037;-64
2022/06/04 05:26:25;;;;;;;7.43;3.47;;;12.80;99.90;;;;;;5052877;28;20063;-64
2022/06/04 05:28:53;;;;;;;7.03;3.63;;;12.80;99.90;;;;;;5051540;28;20032;-64
2022/06/04 05:31:20;;;;;;;7.55;3.40;;;12.90;99.90;;;;;;5049888;28;20047;-65
2022/06/04 05:33:46;;;;;;;6.63;3.55;;;13.00;99.90;;;;;;5037383;28;20041;-64
2022/06/04 05:36:12;;;;;;;7.30;3.72;;;13.10;99.90;;;;;;5050366;28;20502;-64
2022/06/04 05:38:40;;;;;;;6.78;3.35;;;13.30;99.90;;;;;;5039990;28;20051;-65
2022/06/04 05:41:08;;;;;;;9.50;3.58;;;13.30;99.90;;;;;;5034326;28;20095;-65
2022/06/04 05:43:35;;;;;;;6.38;3.90;;;13.40;99.90;;;;;;5046595;28;20116;-65
2022/06/04 05:46:04;;;;;;;7.55;3.30;;;13.40;99.90;;;;;;5043266;28;20047;-65
2022/06/04 05:48:30;;;;;;;8.20;3.15;;;13.40;99.90;;;;;;5032541;28;20537;-65
2022/06/04 05:50:57;;;;;;;5.85;3.70;;;13.40;99.90;;;;;;5043878;28;20052;-65
2022/06/04 05:53:24;;;;;;;7.80;3.42;;;13.30;99.90;;;;;;5050942;28;20091;-65
2022/06/04 05:55:50;;;;;;;8.10;3.30;;;13.30;99.90;;;;;;5034124;28;20048;-65
2022/06/04 05:58:16;;;;;;;8.98;3.97;;;13.30;99.90;;;;;;5050571;28;20124;-65
2022/06/04 06:00:43;;;;;;;8.93;3.55;;;13.30;99.90;;;;;;5051412;28;20063;-65
2022/06/04 06:03:09;;;;;;;6.50;3.55;;;;;;;;;;5039565;28;20451;-65
2022/06/04 06:05:39;;;;;;;6.57;3.05;;;13.70;99.90;;;;;;5030232;28;20095;-65
2022/06/04 06:08:05;;;;;;;7.53;3.53;;;13.70;99.90;;;;;;5030800;28;20041;-65
2022/06/04 06:10:32;;;;;;;6.72;3.30;;;13.60;99.90;;;;;;5032433;28;20391;-65
2022/06/04 06:12:58;;;;;;;7.03;3.58;;;13.50;99.90;;;;;;5031184;28;20117;-65
2022/06/04 06:15:23;;;;;;;7.28;3.45;;;13.60;99.90;;;;;;5031101;28;20057;-65
2022/06/04 06:17:49;;;;;;;10.63;3.75;;;13.60;99.90;;;;;;5039696;28;20048;-65
2022/06/04 06:20:16;;;;;;;6.25;3.63;;;13.70;99.90;;;;;;5051159;28;20063;-65
2022/06/04 06:22:41;;;;;;;7.40;3.22;;;13.80;99.90;;;;;;5032500;28;20477;-65
2022/06/04 06:25:07;;;;;;;6.60;3.20;;;13.90;99.90;;;;;;5051519;28;20084;-65
2022/06/04 06:27:33;;;;;;;7.93;4.32;;;13.90;99.90;;;;;;5036558;28;20060;-65
2022/06/04 06:29:59;;;;;;;7.60;3.85;;;13.80;99.90;;;;;;5031598;28;20400;-65
2022/06/04 06:32:26;;;;;;;7.00;4.20;;;13.70;99.90;;;;;;5027713;28;20477;-65
2022/06/04 06:34:52;;;;;;;8.60;3.50;;;13.80;99.90;;;;;;5030092;28;20576;-65
2022/06/04 06:37:18;;;;;;;7.68;3.58;;;;;;;;;;5049492;28;20040;-65
2022/06/04 06:39:44;;;;;;;6.47;3.35;;;;;;;;;;5047184;28;20045;-65
2022/06/04 06:42:10;;;;;;;7.32;3.85;;;;;;;;;;5039607;28;20045;-64
2022/06/04 06:44:36;;;;;;;6.95;3.90;;;;;;;;;;5035415;28;20045;-65
2022/06/04 06:47:02;;;;;;;6.65;3.20;;;14.60;99.90;;;;;;5042158;28;20045;-64
2022/06/04 06:49:29;;;;;;;5.93;3.55;;;;;;;;;;5042402;28;20041;-65
2022/06/04 06:51:57;;;;;;;8.68;3.40;;;;;;;;;;5031438;28;20041;-64
2022/06/04 06:54:24;;;;;;;5.80;2.80;;;;;;;;;;5026895;28;20048;-65
2022/06/04 06:56:51;;;;;;;6.72;2.88;;;;;;;;;;5030662;28;20099;-65
2022/06/04 06:59:21;;;;;;;6.50;3.92;;;;;;;;;;5041522;28;20098;-65
2022/06/04 07:01:48;;;;;;;8.02;3.28;;;;;;;;;;5049536;28;20036;-65
2022/06/04 07:04:15;;;;;;;7.20;3.95;;;;;;;;;;5051171;28;20048;-65
2022/06/04 07:06:43;;;;;;;7.57;3.25;;;;;;;;;;5030499;28;20029;-65
2022/06/04 07:09:14;;;;;;;8.95;3.85;;;;;;;;;;5052102;28;20049;-66
2022/06/04 07:11:40;;;;;;;6.95;3.83;;;;;;;;;;5051642;28;20494;-65
2022/06/04 07:14:06;;;;;;;5.85;3.55;;;;;;;;;;5045353;28;20382;-65
2022/06/04 07:16:32;;;;;;;8.43;3.92;;;;;;;;;;5040230;28;20550;-65
2022/06/04 07:19:00;;;;;;;9.50;4.18;;;;;;;;;;5036062;28;20092;-66
2022/06/04 07:21:26;;;;;;;7.78;4.38;;;;;;;;;;5034232;28;20084;-65
2022/06/04 07:23:53;;;;;;;6.18;3.60;;;;;;;;;;5044615;28;20045;-66
2022/06/04 07:26:19;;;;;;;6.15;2.90;;;;;;;;;;5035267;28;20067;-65
2022/06/04 07:28:45;;;;;;;8.98;3.78;;;;;;;;;;5026141;28;20063;-65
2022/06/04 07:31:12;;;;;;;7.57;3.60;;;;;;;;;;5030033;28;20161;-66
2022/06/04 07:33:39;;;;;;;8.27;4.47;;;;;;;;;;5047969;28;20041;-66
2022/06/04 07:36:05;;;;;;;6.95;3.53;;;;;;;;;;5044618;28;20037;-66
2022/06/04 07:38:31;;;;;;;7.03;3.20;;;;;;;;;;5050848;28;20116;-65
2022/06/04 07:40:57;;;;;;;6.97;3.42;;;;;;;;;;5034652;28;20075;-67
2022/06/04 07:43:24;;;;;;;7.05;3.88;;;;;;;;;;5050277;28;20095;-72
2022/06/04 07:45:50;;;;;;;5.68;3.30;;;;;;;;;;5050324;28;20406;-67
2022/06/04 07:48:16;;;;;;;5.68;3.33;;;;;;;;;;5052021;28;20032;-67
2022/06/04 07:50:42;;;;;;;6.60;3.13;;;;;;;;;;5043645;28;20049;-66
2022/06/04 07:53:08;;;;;;;6.28;3.15;;;;;;;;;;5054364;28;20680;-66
2022/06/04 07:55:37;;;;;;;7.03;3.53;;;;;;;;;;5050104;28;20048;-66
2022/06/04 07:58:04;;;;;;;7.25;3.72;;;;;;;;;;5033622;28;20041;-65
2022/06/04 08:00:30;;;;;;;8.68;3.70;;;;;;;;;;5060040;28;20055;-66
2022/06/04 08:02:57;;;;;;;7.43;3.88;;;;;;;;;;5061335;28;20045;-66
2022/06/04 08:05:23;;;;;;;9.50;3.58;;;15.30;99.90;;;;;;5052048;28;20048;-66
2022/06/04 08:07:49;;;;;;;9.20;3.10;;;;;;;;;;5051002;28;20120;-66
2022/06/04 08:10:14;;;;;;;7.60;4.03;;;15.50;99.90;;;;;;5048406;28;20041;-66
2022/06/04 08:12:51;;;;;;;8.20;3.53;;;15.60;99.90;;;;;;5052360;28;20044;-66
2022/06/04 08:15:16;;;;;;;7.07;3.90;;;15.70;99.90;;;;;;5033482;28;20056;-66
2022/06/04 08:17:42;;;;;;;5.95;3.10;;;;;;;;;;5033313;28;20932;-66
2022/06/04 08:20:09;;;;;;;5.35;2.90;;;;;;;;;;5062822;28;20590;-66
2022/06/04 08:22:35;;;;;;;7.47;3.17;;;;;;;;;;5034113;28;20056;-66
2022/06/04 08:25:01;;;;;;;5.60;2.70;;;;;;;;;;5035098;28;20072;-66
2022/06/04 08:27:27;;;;;;;7.15;3.22;;;;;;;;;;5055473;28;20529;-66
2022/06/04 08:29:53;;;;;;;7.78;3.22;;;15.60;99.90;;;;;;5051868;28;20506;-66
2022/06/04 08:32:19;;;;;;;7.93;3.10;;;15.60;99.90;;;;;;5036033;28;20037;-66
2022/06/04 08:34:44;;;;;;;7.95;3.00;;;15.60;99.90;;;;;;5052379;28;20125;-65
2022/06/04 08:37:10;;;;;;;6.78;3.22;;;;;;;;;;5043123;28;20116;-66
2022/06/04 08:39:37;;;;;;;7.13;3.25;;;;;;;;;;5044412;28;20044;-66
2022/06/04 08:42:04;;;;;;;5.82;3.28;;;;;;;;;;5034843;28;20049;-66
2022/06/04 08:44:33;;;;;;;6.35;2.80;;;;;;;;;;5050223;28;20107;-67
2022/06/04 08:47:00;;;;;;;6.28;3.55;;;;;;;;;;5034924;28;20048;-68
2022/06/04 08:49:56;;;;;;;5.93;2.97;;;16.10;99.90;;;;;;5035456;28;20044;-65
2022/06/04 08:52:24;;;;;;;5.88;3.28;;;16.10;99.90;;;;;;5039107;28;20037;-65
2022/06/04 08:58:00;;;;;;;8.77;4.65;;;16.00;99.90;;;;;;5048683;28;20047;-68
2022/06/04 09:00:52;;;;;;;10.65;3.55;;;16.00;99.90;;;;;;5041954;28;20072;-67
2022/06/04 09:03:39;;;;;;;8.18;3.47;;;16.10;99.90;;;;;;5048373;28;20051;-67
2022/06/04 09:06:43;;;;;;;8.13;3.70;;;16.20;99.90;;;;;;5031820;28;20038;-72
2022/06/04 09:09:15;;;;;;;8.63;4.35;;;16.30;99.90;;;;;;5035252;28;20044;-67
2022/06/04 09:11:57;;;;;;;8.23;3.83;;;16.30;99.90;;;;;;5051949;28;20125;-67
2022/06/04 09:14:33;;;;;;;6.88;3.28;;;16.40;99.90;;;;;;5046042;28;20087;-67
2022/06/04 09:17:09;;;;;;;7.03;2.95;;;;;;;;;;5031537;28;20037;-68
2022/06/04 09:19:36;;;;;;;9.77;4.10;;;;;;;;;;5048738;28;20620;-67
2022/06/04 09:22:03;;;;;;;5.95;2.97;;;;;;;;;;5050328;28;20166;-68
2022/06/04 09:24:30;;;;;;;5.90;3.05;;;;;;;;;;5050213;28;20034;-68
2022/06/04 09:27:00;;;;;;;5.75;2.88;;;;;;;;;;5050720;28;20048;-68
2022/06/04 09:29:26;;;;;;;6.32;3.10;;;;;;;;;;5033011;28;20127;-68
2022/06/04 09:32:20;;;;;;;5.80;2.80;;;16.70;99.90;;;;;;5052225;28;20103;-67
2022/06/04 09:34:49;;;;;;;5.75;3.03;;;16.70;99.90;;;;;;5049415;28;20045;-67
2022/06/04 09:37:14;;;;;;;6.00;3.05;;;16.70;99.90;;;;;;5036368;28;20076;-68
2022/06/04 09:39:45;;;;;;;9.02;3.42;;;16.50;99.90;;;;;;5049901;28;20139;-71
2022/06/04 09:42:13;;;;;;;12.38;3.60;;;16.40;99.90;;;;;;5032138;28;20045;-67
2022/06/04 09:44:56;;;;;;;6.65;2.92;;;16.20;99.90;;;;;;5048278;28;20042;-68
2022/06/04 09:47:38;;;;;;;5.68;2.42;;;16.10;99.90;;;;;;5031730;28;20045;-66
2022/06/04 09:50:24;;;;;;;5.95;3.45;;;;;;;;;;5034410;28;20043;-66
2022/06/04 09:53:21;;;;;;;5.80;2.30;;;15.90;99.90;;;;;;5039023;28;20049;-66
2022/06/04 09:56:26;;;;;;;10.35;3.60;;;15.90;99.90;;;;;;5038705;28;20057;-65
2022/06/04 09:58:52;;;;;;;5.50;2.90;;;16.00;99.90;;;;;;5040928;28;20405;-66
2022/06/04 10:01:18;;;;;;;5.88;3.40;;;16.10;99.90;;;;;;5060519;28;20044;-66
2022/06/04 10:03:45;;;;;;;6.47;3.13;;;16.30;99.90;;;;;;5037875;28;20042;-66
2022/06/04 10:06:16;;;;;;;6.68;3.40;;;16.50;99.90;;;;;;5031997;28;20120;-66
2022/06/04 10:11:49;;;;;;;5.70;3.10;;;16.70;99.90;;;;;;5051671;28;20045;-67
2022/06/04 10:14:15;;;;;;;6.85;3.20;;;16.60;99.90;;;;;;5052063;28;20032;-69
2022/06/04 10:16:44;;;;;;;6.35;3.22;;;16.50;99.90;;;;;;5046152;28;20026;-65
2022/06/04 10:19:17;;;;;;;6.05;3.03;;;16.60;99.90;;;;;;5043342;28;20072;-68
2022/06/04 10:21:46;;;;;;;6.28;3.65;;;16.60;99.90;;;;;;5031144;28;20049;-67
2022/06/04 10:24:22;;;;;;;6.25;3.67;;;16.60;99.90;;;;;;5034292;28;20039;-66
2022/06/04 10:27:01;;;;;;;6.43;3.45;;;16.50;99.90;;;;;;5035939;28;20046;-67
2022/06/04 10:29:56;;;;;;;6.38;3.70;;;16.60;99.90;;;;;;5047558;28;20042;-64
2022/06/04 10:32:44;;;;;;;6.65;3.78;;;16.80;99.90;;;;;;5050754;28;20041;-66
2022/06/04 10:35:23;;;;;;;5.95;2.88;;;16.70;99.90;;;;;;5051570;28;20128;-67
2022/06/04 10:38:16;;;;;;;7.90;2.97;;;16.50;99.90;;;;;;5050895;28;20049;-65
2022/06/04 10:40:50;;;;;;;7.38;3.25;;;16.50;99.90;;;;;;5034214;28;20138;-67
2022/06/04 10:43:30;;;;;;;9.40;4.33;;;16.50;99.90;;;;;;5036317;28;20041;-66
2022/06/04 10:45:59;;;;;;;7.95;3.50;;;16.60;99.90;;;;;;5049904;28;20041;-66
2022/06/04 10:48:47;;;;;;;7.85;3.33;;;16.60;99.90;;;;;;5051552;28;20045;-67
2022/06/04 10:51:50;;;;;;;6.68;3.70;;;16.80;99.90;;;;;;5035515;28;20131;-67
2022/06/04 10:54:39;;;;;;;6.93;3.75;;;16.90;99.90;;;;;;5050426;28;20482;-67
2022/06/04 10:57:13;;;;;;;6.40;3.25;;;16.90;99.90;;;;;;5050732;28;20049;-67
2022/06/04 10:59:48;;;;;;;8.85;4.22;;;16.90;99.90;;;;;;5034949;28;20495;-67
2022/06/04 11:02:24;;;;;;;6.68;3.63;;;16.90;99.90;;;;;;5035876;28;20103;-67
2022/06/04 11:04:58;;;;;;;9.32;3.85;;;17.10;99.90;;;;;;5050668;28;20057;-66
2022/06/04 11:07:35;;;;;;;6.35;3.35;;;17.10;99.90;;;;;;5050233;28;20042;-67
2022/06/04 11:10:06;;;;;;;7.65;3.13;;;17.10;99.90;;;;;;5050301;28;20080;-67
2022/06/04 11:12:42;;;;;;;8.70;3.03;;;17.00;99.90;;;;;;5035496;28;20508;-66
2022/06/04 11:15:19;;;;;;;8.93;4.40;;;17.10;99.90;;;;;;5034297;28;20038;-66
2022/06/04 11:18:12;;;;;;;11.13;3.13;;;17.10;99.90;;;;;;5035108;28;20038;-67
2022/06/04 11:20:45;;;;;;;6.85;3.20;;;17.10;99.90;;;;;;5033259;28;20057;-67
2022/06/04 11:23:41;;;;;;;8.25;3.90;;;17.10;99.90;;;;;;5033816;28;20041;-67
2022/06/04 11:26:29;;;;;;;5.32;3.47;;;17.20;99.90;;;;;;5050030;28;20077;-68
2022/06/04 11:28:55;;;;;;;7.30;3.60;;;17.10;99.90;;;;;;5049285;28;20049;-68
2022/06/04 11:31:36;;;;;;;7.85;3.45;;;17.10;99.90;;;;;;5050706;28;20041;-66
2022/06/04 11:34:18;;;;;;;14.23;4.82;;;17.10;99.90;;;;;;5050151;28;20037;-66
2022/06/04 11:37:15;;;;;;;8.77;3.80;;;17.00;99.90;;;;;;5049518;28;20045;-65
2022/06/04 11:40:00;;;;;;;7.95;3.83;;;17.10;99.90;;;;;;5052548;28;20043;-65
2022/06/04 11:42:53;;;;;;;8.73;3.97;;;17.10;99.90;;;;;;5051936;28;20477;-64
2022/06/04 11:45:42;;;;;;;7.30;3.72;;;17.10;99.90;;;;;;5034776;28;20445;-67
2022/06/04 11:48:29;;;;;;;8.55;3.85;;;16.90;99.90;;;;;;5033271;28;20037;-67
2022/06/04 11:51:13;;;;;;;6.88;3.90;;;17.00;99.90;;;;;;5033892;28;20052;-65
2022/06/04 11:53:44;;;;;;;7.30;3.40;;;17.20;99.90;;;;;;5048856;28;20041;-69
2022/06/04 11:56:31;;;;;;;8.93;4.32;;;17.20;99.90;;;;;;5035508;28;20276;-69
2022/06/04 11:59:26;;;;;;;8.82;3.78;;;17.20;99.90;;;;;;5054019;28;20043;-68
2022/06/04 12:02:00;;;;;;;7.15;3.53;;;17.20;99.90;;;;;;5053740;28;20041;-69
2022/06/04 12:04:45;;;;;;;8.57;4.47;;;17.30;99.90;;;;;;5053486;28;20037;-69
2022/06/04 12:07:18;;;;;;;9.30;4.50;;;;;;;;;;5052023;28;20095;-69
2022/06/04 12:09:57;;;;;;;8.88;4.43;;;;;;;;;;5051467;28;20040;-70
2022/06/04 12:12:24;;;;;;;8.35;3.80;;;;;;;;;;5054249;28;20517;-69
2022/06/04 12:14:50;;;;;;;11.05;5.15;;;;;;;;;;5044008;28;20112;-69
2022/06/04 12:17:22;;;;;;;8.38;4.45;;;;;;;;;;5044944;28;20171;-69
2022/06/04 12:25:42;;;;;;;8.50;4.95;;;;;;;;;;5033538;28;20049;-70
2022/06/04 12:28:27;;;;;;;10.18;4.72;;;;;;;;;;5032583;28;20043;-69
2022/06/04 12:30:53;;;;;;;;;;;;;;;;;;5032134;28;20053;-70
2022/06/04 12:33:25;;;;;;;6.68;4.60;;;;;;;;;;5035085;28;19917;-70
2022/06/04 12:35:59;;;;;;;10.20;5.00;;;;;;;;;;5048721;28;20449;-69
2022/06/04 12:38:26;;;;;;;9.82;4.63;;;;;;;;;;5052334;28;20104;-69
2022/06/04 12:41:03;;;;;;;8.48;4.32;;;;;;;;;;5052124;28;20084;-69
2022/06/04 12:43:35;;;;;;;7.03;3.85;;;;;;;;;;5038495;28;20045;-72
2022/06/04 12:46:09;;;;;;;9.15;4.53;;;;;;;;;;5031221;28;20115;-68
2022/06/04 12:48:44;;;;;;;10.88;4.05;;;;;;;;;;5037986;28;20359;-68
2022/06/04 12:51:15;;;;;;;10.68;4.18;;;;;;;;;;5053008;28;20461;-72
2022/06/04 12:53:52;;;;;;;8.95;4.40;;;;;;;;;;5051728;28;20032;-70
2022/06/04 12:56:27;;;;;;;9.60;5.38;;;;;;;;;;5041500;28;20394;-69
2022/06/04 12:58:56;;;;;;;10.15;5.55;;;17.10;99.90;;;;;;5061756;28;20052;-69
2022/06/04 13:01:30;;;;;;;9.65;4.63;;;17.30;99.90;;;;;;5047580;28;20044;-69
2022/06/04 13:04:10;;;;;;;12.93;5.50;;;17.10;99.90;;;;;;5034850;28;20072;-69
2022/06/04 13:06:55;;;;;;;9.73;4.65;;;16.90;99.90;;;;;;5047462;28;20037;-69
2022/06/04 13:09:31;;;;;;;;;;;16.90;99.90;;;;;;5035720;28;20041;-68
2022/06/04 13:12:08;;;;;;;7.55;3.72;;;16.80;99.90;;;;;;5046372;28;20393;-70
2022/06/04 13:14:42;;;;;;;9.82;4.15;;;16.80;99.90;;;;;;5037087;28;20041;-70
2022/06/04 13:17:26;;;;;;;8.18;3.85;;;16.70;99.90;;;;;;5051965;28;20041;-70
2022/06/04 13:20:14;;;;;;;8.40;3.80;;;16.70;99.90;;;;;;5050454;28;20134;-69
2022/06/04 13:22:59;;;;;;;8.43;3.78;;;16.90;99.90;;;;;;5038160;28;20071;-69
2022/06/04 13:25:38;;;;;;;10.82;4.30;;;17.00;99.90;;;;;;4999829;28;20081;-69
2022/06/04 13:28:05;;;;;;;9.52;3.78;;;17.10;99.90;;;;;;5030754;28;20052;-68
2022/06/04 13:30:34;;;;;;;8.82;3.90;;;17.10;99.90;;;;;;5036323;28;20029;-68
2022/06/04 13:33:14;;;;;;;8.50;4.07;;;17.10;99.90;;;;;;5040249;28;20093;-69
2022/06/04 13:35:46;;;;;;;11.23;4.38;;;17.10;99.90;;;;;;5049713;28;20044;-68
2022/06/04 13:38:34;;;;;;;11.48;3.95;;;17.00;99.90;;;;;;5051264;28;20127;-68
2022/06/04 13:41:06;;;;;;;7.40;3.78;;;17.10;99.90;;;;;;5037819;28;20048;-68
2022/06/04 13:43:42;;;;;;;8.40;4.20;;;17.10;99.90;;;;;;5029319;28;20107;-68
2022/06/04 13:46:22;;;;;;;10.50;3.85;;;17.20;99.90;;;;;;5012714;28;20475;-68
2022/06/04 13:48:57;;;;;;;8.85;4.05;;;17.40;99.90;;;;;;5039108;28;20505;-69
2022/06/04 13:51:26;;;;;;;7.97;3.58;;;17.60;99.90;;;;;;5039860;28;20171;-69
2022/06/04 13:53:54;;;;;;;13.30;5.32;;;17.80;99.90;;;;;;5046597;28;20774;-69
2022/06/04 13:56:25;;;;;;;7.72;3.63;;;17.90;99.90;;;;;;5028217;28;20049;-66
2022/06/04 13:58:51;;;;;;;10.40;4.78;;;17.90;99.90;;;;;;5029612;28;20106;-68